Pioche, Nevada Weather observations

Data are for observation ending at time listed.
 Day   Time    Ave.   Ave.  Ave.  Vector   Max.   Stn.    Total    Solar   Ave.  
  of    of     Air    Rel.  Wind   Wind    Wind   Baro.  Precip.   Rad.    Soil  
Year   Day     Temp.  Hum.  Speed  Dir.    Gust   Pres.                    Temp. 
2020   (PST)    F      %     mph   deg.    mph     mb.     in.     W/m2     F   
------------------------------------------------------------------------------
 216    0:50   67.4    15    0.9   179      2.8   822.3    0.00       0    85.7
 216    1:00   66.6    16    1.7   156      3.7   822.3    0.00       0    85.6
 216    1:10   66.0    16    3.1   149      5.6   822.2    0.00       0    85.6
 216    1:20   66.2    15    2.9   144      4.6   822.2    0.00       0    85.5
 216    1:30   65.1    18    1.1   199      2.3   822.3    0.00       0    85.4
 216    1:40   66.1    16    1.3   146      3.1   822.4    0.00       0    85.4
 216    1:50   65.8    17    0.9   168      2.2   822.4    0.00       0    85.3
 216    2:00   66.3    15    2.8   150      4.6   822.4    0.00       0    85.2
 216    2:10   65.2    16    0.5   230      3.1   822.4    0.00       0    85.2
 216    2:20   63.8    17    0.6   180      2.9   822.4    0.00       0    85.1
 216    2:30   63.5    18    0.7   160      2.6   822.5    0.00       0    85.0
 216    2:40   63.2    18    0.4   194      2.3   822.5    0.00       0    84.9
 216    2:50   63.3    18    0.8   166      2.5   822.4    0.00       0    84.9
 216    3:00   63.1    17    1.2   160      3.9   822.3    0.00       0    84.8
 216    3:10   62.9    18    1.1   189      2.7   822.3    0.00       0    84.7
 216    3:20   62.7    18    1.4   151      3.2   822.3    0.00       0    84.7
 216    3:30   62.8    18    3.1   150      6.4   822.3    0.00       0    84.6
 216    3:40   63.3    16    4.8   153      6.4   822.4    0.00       0    84.5
 216    3:50   63.5    16    5.2   147      6.6   822.4    0.00       0    84.4
 216    4:00   64.6    15    5.7   146      7.2   822.4    0.00       0    84.3
 216    4:10   64.6    15    5.0   145      7.0   822.4    0.00       0    84.3
 216    4:20   64.7    16    3.5   151      4.8   822.4    0.00       0    84.2
 216    4:30   64.0    18    1.1   158      4.3   822.5    0.00       0    84.1
 216    4:40   63.9    18    1.6   141      2.6   822.6    0.00       0    84.0
 216    4:50   64.2    20    1.8   122      3.9   822.6    0.00       4    84.0
 216    5:00   65.2    20    1.1   129      3.6   822.6    0.00      10    83.9
 216    5:10   65.0    19    0.8    32      3.1   822.6    0.00      16    83.8
 216    5:20   63.2    19    0.9   314      2.1   822.7    0.00      25    83.8
 216    5:30   62.7    21    0.5   153      1.9   822.7    0.00      33    83.7
 216    5:40   63.0    23    0.6   320      2.3   822.7    0.00      40    83.6
 216    5:50   63.5    19    0.9    46      2.6   822.9    0.00      50    83.6
 216    6:00   64.9    17    3.2    73      5.6   823.0    0.00      63    83.5
 216    6:10   65.6    16    3.3    76      6.6   823.1    0.00     210    83.4
 216    6:20   67.0    15    1.1    81      3.2   823.1    0.00     248    83.3
 216    6:30   67.9    15    2.1    86      4.3   823.1    0.00     278    83.3
 216    6:40   69.1    14    3.8    78      5.7   823.1    0.00     317    83.2
 216    6:50   69.8    14    4.4    81      6.5   823.2    0.00     357    83.1
 216    7:00   70.2    14    4.5    82      6.9   823.2    0.00     392    83.0
 216    7:10   70.6    14    4.1    82      5.9   823.3    0.00     427    83.0
 216    7:20   71.1    14    3.2    83      5.0   823.4    0.00     478    82.9
 216    7:30   72.6    13    2.7    71      4.4   823.4    0.00     508    82.9
 216    7:40   77.1    13    6.7   127     14.1   823.4    0.00     535    82.8
 216    7:50   79.3    12    7.9   138     12.3   823.4    0.00     567    82.8
 216    8:00   80.2    11    6.1   143     13.3   823.4    0.00     604    82.7
 216    8:10   80.9    11    6.0   143     11.2   823.5    0.00     640    82.7
 216    8:20   81.2    11    7.5   144     14.2   823.5    0.00     674    82.7
 216    8:30   81.0    11   10.7   141     16.4   823.4    0.00     708    82.6
 216    8:40   81.6    11   10.0   146     17.3   823.4    0.00     729    82.6
 216    8:50   81.8    10   12.2   143     19.1   823.4    0.00     751    82.5
 216    9:00   82.2    10   12.3   139     18.8   823.4    0.00     790    82.5
 216    9:10   83.1    10   10.9   142     16.1   823.5    0.00     820    82.4
 216    9:20   83.4    10   11.3   144     19.3   823.6    0.00     842    82.4
 216    9:30   83.1     9   13.5   142     19.6   823.5    0.00     868    82.3
 216    9:40   84.2     9   10.0   141     20.5   823.5    0.00     904    82.3
 216    9:50   85.2     9   10.6   142     16.8   823.5    0.00     931    82.2
 216   10:00   85.6     9    8.9   137     17.1   823.5    0.00     939    82.2
 216   10:10   86.6     8    8.4   130     15.2   823.5    0.00     958    82.2
 216   10:20   86.6     9    8.7   140     16.7   823.5    0.00     975    82.1
 216   10:30   87.1     8    8.6   138     15.9   823.5    0.00     990    82.1
 216   10:40   87.5     8    9.0   143     15.5   823.5    0.00     999    82.0
 216   10:50   87.6     8    6.7   145     13.6   823.5    0.00    1022    82.1
 216   11:00   88.7     9    4.7   147     15.0   823.4    0.00    1011    82.1
 216   11:10   89.5     8    6.3   130     15.3   823.2    0.00    1059    82.1
 216   11:20   88.4     8    6.3   119     13.6   823.2    0.00     986    82.1
 216   11:30   89.1     8    3.5   145     12.3   823.1    0.00    1018    82.1
 216   11:40   89.8     8    5.3   123     14.4   823.0    0.00    1035    82.1
 216   11:50   90.4     7    7.7   128     15.8   822.9    0.00    1054    82.1
 216   12:00   90.6     6    9.1   134     15.4   822.8    0.00    1047    82.3
 216   12:10   90.5     7    6.4   126     14.0   822.8    0.00    1066    82.3
 216   12:20   91.6     7    4.4   121      9.6   822.7    0.00    1064    82.4
 216   12:30   93.3     7    1.0   194      8.8   822.6    0.00    1065    82.5
 216   12:40   93.2     7    2.1   220     10.9   822.6    0.00    1021    82.5
 216   12:50   92.6     7    1.4   139      7.7   822.5    0.00    1011    82.6
 216   13:00   93.9     7    1.8   218     14.2   822.4    0.00    1019    82.7
 216   13:10   92.8     7    4.6   133     16.1   822.3    0.00    1003    82.8
 216   13:20   92.7     7    5.0   166     13.7   822.2    0.00    1010    82.8
 216   13:30   92.5     7    3.9   205     13.4   822.2    0.00     982    82.9
 216   13:40   92.3     7    3.0   206     12.3   822.1    0.00     972    83.0
 216   13:50   93.1     7    3.7   209     13.8   822.1    0.00     942    83.1
 216   14:00   92.7     7    3.5   247     11.6   822.0    0.00     921    83.2
 216   14:10   92.8     7    2.0   272      8.9   821.8    0.00     907    83.3
 216   14:20   93.2     7    3.6   178     11.8   821.8    0.00     884    83.4
 216   14:30   92.2     7    3.2   163     15.8   821.8    0.00     864    83.6
 216   14:40   93.3     7    2.5   172     12.6   821.7    0.00     833    83.7
 216   14:50   92.8     8    4.2   202     13.2   821.7    0.00     784    83.8
 216   15:00   91.8     8    4.2   208     11.9   821.7    0.00     351    84.0
 216   15:10   91.9     7    5.5   119     18.9   821.5    0.00     285    84.2
 216   15:20   92.1     7    5.7   150     14.6   821.4    0.00      90    84.3
 216   15:30   91.2     7    6.2   130     14.7   821.4    0.00      61    84.4
 216   15:40   91.7     7    6.4   148     13.7   821.2    0.00      54    84.5
 216   15:50   90.9     8    6.0   184     14.9   821.2    0.00      58    84.6
 216   16:00   90.8     7    4.4   249      8.7   821.2    0.00      52    84.8
 216   16:10   90.9     7    4.0   207     11.4   821.1    0.00      54    84.8
 216   16:20   90.4     7    3.8   194     14.2   821.0    0.00      58    85.0
 216   16:30   90.7     7    5.4   134     10.4   820.9    0.00      65    85.1
 216   16:40   90.6     7    3.1   158      8.1   820.9    0.00      81    85.2
 216   16:50   89.3     8    3.7   198      9.6   820.9    0.00      99    85.3
 216   17:00   89.5     8    3.1   206      8.4   820.8    0.00     142    85.5
 216   17:10   90.1     7    4.1   156     10.3   820.7    0.00     147    85.6
 216   17:20   89.8     8    5.0   157     12.6   820.7    0.00     115    85.6
 216   17:30   89.7     8    5.4   164     12.5   820.7    0.00     113    85.7
 216   17:40   90.1     7    5.2   147      9.8   820.7    0.00     208    85.7
 216   17:50   89.8     8    4.3   150      9.8   820.7    0.00     167    85.8
 216   18:00   89.2     8    8.4   135     15.3   820.7    0.00     127    85.9
 216   18:10   88.3     8    5.8   145     12.1   820.7    0.00      90    85.9
 216   18:20   87.7     8    9.0   134     19.2   820.7    0.00      54    86.0
 216   18:30   87.3     8    7.7   127     15.1   820.7    0.00      20    86.0
 216   18:40   86.3     8    7.1   145     14.7   820.8    0.00      10    86.0
 216   18:50   85.4     8    8.3   144     14.1   820.7    0.00       4    86.1
 216   19:00   84.6     9    7.5   148     12.9   820.8    0.00       2    86.1
 216   19:10   83.9     9    6.4   143     11.1   820.9    0.00       0    86.1
 216   19:20   83.2     9    6.9   142     11.8   820.9    0.00       0    86.2
 216   19:30   82.4     9    6.0   147      9.9   821.0    0.00       0    86.2
 216   19:40   82.5     9    6.4   149     10.7   821.0    0.00       0    86.2
 216   19:50   82.7     9    6.2   158     12.0   821.1    0.00       0    86.2
 216   20:00   82.9     9    7.0   157     14.5   821.1    0.00       0    86.2
 216   20:10   82.7     9    8.2   163     15.6   821.1    0.00       0    86.2
 216   20:20   82.6     9    8.3   161     13.8   821.2    0.00       0    86.2
 216   20:30   82.1     9    7.7   152     16.8   821.2    0.00       0    86.2
 216   20:40   80.9    10    6.6   151     14.5   821.3    0.00       0    86.2
 216   20:50   80.1    10    6.6   149     13.7   821.4    0.00       0    86.2
 216   21:00   80.3    10    9.4   142     16.4   821.4    0.00       0    86.2
 216   21:10   80.0    10    8.0   146     14.4   821.5    0.00       0    86.2
 216   21:20   79.3    10    5.8   147     11.0   821.4    0.00       0    86.1
 216   21:30   78.6    10    5.6   148      9.9   821.4    0.00       0    86.1
 216   21:40   78.3    10    5.9   144      9.2   821.5    0.00       0    86.1
 216   21:50   78.2    10    4.3   160      9.3   821.5    0.00       0    86.0
 216   22:00   78.1    10    3.4   160      7.7   821.5    0.00       0    86.0
 216   22:10   77.8    10    4.3   154      8.5   821.5    0.00       0    86.0
 216   22:20   77.9    10    4.1   142      6.7   821.6    0.00       0    85.9
 216   22:30   76.6    11    4.1   145      8.5   821.6    0.00       0    85.9
 216   22:40   76.7    11    4.5   145      6.8   821.6    0.00       0    85.8
 216   22:50   77.5    11    4.2   157      9.1   821.7    0.00       0    85.8
 216   23:00   76.8    14    4.1   154      8.8   821.7    0.00       0    85.7
 216   23:10   76.7    13    3.8   149      8.4   821.7    0.00       0    85.7
 216   23:20   75.8    15    2.9   156      8.0   821.6    0.00       0    85.7
 216   23:30   75.9    15    3.4   165      7.1   821.5    0.00       0    85.6
 216   23:40   76.7    14    4.7   185      9.5   821.5    0.00       0    85.6
 216   23:50   77.5    13    5.5   188     12.6   821.5    0.00       0    85.5
 217    0:00   78.8    12    5.0   177      9.9   821.5    0.00       0    85.5
 217    0:10   78.6    11    4.9   147      9.9   821.5    0.00       0    85.4
 217    0:20   77.0    11    4.4   145      6.6   821.4    0.00       0    85.3
 217    0:30   75.7    12    5.1   147      7.7   821.4    0.00       0    85.3
 217    0:40   75.7    11    5.5   146      9.1   821.3    0.00       0    85.2

Return to Pioche, Nevada graphs page.


Western Regional Climate Center,wrcc@dri.edu